Time;durP1;ratioP1;P1;durP2;ratioP2;P2;SDS_P1;SDS_P2;PMS_P1;PMS_P2;Temp;Humidity;BMP_temperature;BMP_pressure;BME280_temperature;BME280_humidity;BME280_pressure;Samples;Min_cycle;Max_cycle;Signal;HPM_P1;HPM_P2
2023/01/06 00:00:02;;;;;;;;;;;;;;;;;;5001109;28;19928;-95
2023/01/06 00:02:28;;;;;;;;;;;;;;;;;;5000351;28;19944;-94
2023/01/06 00:04:54;;;;;;;;;;;;;;;;;;5000391;28;20051;-95
2023/01/06 00:07:20;;;;;;;;;;;;;;;;;;5000517;28;19928;-95
2023/01/06 00:09:46;;;;;;;;;;;;;;;;;;5000638;28;19928;-95
2023/01/06 00:12:12;;;;;;;;;;;;;;;;;;4999988;28;20434;-95
2023/01/06 00:14:38;;;;;;;;;;;;;;;;;;5000287;28;20015;-93
2023/01/06 00:17:04;;;;;;;;;;;;;;;;;;4999984;28;19929;-94
2023/01/06 00:19:30;;;;;;;;;;;;;;;;;;5000142;28;19975;-94
2023/01/06 00:21:56;;;;;;;;;;;;;;;;;;4999968;28;19922;-95
2023/01/06 00:24:22;;;;;;;;;;;;;;;;;;4999629;28;19960;-95
2023/01/06 00:26:47;;;;;;;;;;;;;;;;;;4999735;28;19943;-95
2023/01/06 00:29:13;;;;;;;;;;;;;;;;;;5000188;28;19925;-94
2023/01/06 00:31:39;;;;;;;;;;;;;;;;;;5001215;28;19975;-95
2023/01/06 00:34:05;;;;;;;;;;;;;;;;;;5000033;28;20016;-94
2023/01/06 00:36:34;;;;;;;;;;;;;;;;;;4999696;28;19948;-95
2023/01/06 00:39:00;;;;;;;;;;;;;;;;;;4999662;28;20011;-94
2023/01/06 00:44:11;;;;;;;;;;;;;;;;;;5016513;28;19944;-95
2023/01/06 00:46:40;;;;;;;;;;;;;;;;;;5000589;28;19920;-96
2023/01/06 00:49:09;;;;;;;;;;;;;;;;;;4999541;28;21981;-95
2023/01/06 00:51:38;;;;;;;;;;;;;;;;;;4999200;28;20447;-95
2023/01/06 00:54:04;;;;;;;;;;;;;;;;;;4999838;28;19971;-94
2023/01/06 00:56:30;;;;;;;;;;;;;;;;;;4999362;28;19929;-95
2023/01/06 00:58:56;;;;;;;;;;;;;;;;;;4999556;28;19943;-94
2023/01/06 01:01:22;;;;;;;;;;;;;;;;;;4999567;28;19921;-95
2023/01/06 01:03:48;;;;;;;;;;;;;;;;;;4999925;28;19921;-94
2023/01/06 01:06:14;;;;;;;;;;;;;;;;;;4999582;28;19925;-94
2023/01/06 01:08:43;;;;;;;;;;;;;;;;;;4999564;28;19922;-94
2023/01/06 01:11:09;;;;;;;;;;;;;;;;;;4999903;28;19971;-94
2023/01/06 01:13:35;;;;;;;;;;;;;;;;;;4999447;28;19921;-95
2023/01/06 01:16:01;;;;;;;;;;;;;;;;;;4999511;28;20066;-95
2023/01/06 01:18:27;;;;;;;;;;;;;;;;;;4999401;28;19921;-94
2023/01/06 01:21:02;;;;;;;;;;;;;;;;;;4999541;28;19922;-95
2023/01/06 01:23:28;;;;;;;;;;;;;;;;;;4999057;28;19928;-95
2023/01/06 01:25:54;;;;;;;;;;;;;;;;;;5015803;28;19925;-94
2023/01/06 01:28:20;;;;;;;;;;;;;;;;;;4999632;28;19979;-94
2023/01/06 01:30:48;;;;;;;;;;;;;;;;;;4999402;28;19921;-94
2023/01/06 01:33:14;;;;;;;;;;;;;;;;;;4999188;28;19921;-93
2023/01/06 01:35:40;;;;;;;;;;;;;;;;;;5000963;28;20099;-94
2023/01/06 01:38:06;;;;;;;;;;;;;;;;;;5002836;28;19929;-94
2023/01/06 01:40:32;;;;;;;;;;;;;;;;;;5003404;28;20016;-95
2023/01/06 01:42:58;;;;;;;;;;;;;;;;;;5003371;28;20418;-94
2023/01/06 01:45:24;;;;;;;;;;;;;;;;;;5002882;28;19925;-94
2023/01/06 01:47:50;;;;;;;;;;;;;;;;;;5002788;28;19979;-94
2023/01/06 01:50:16;;;;;;;;;;;;;;;;;;5019197;28;19921;-95
2023/01/06 01:52:42;;;;;;;;;;;;;;;;;;5002795;28;19944;-94
2023/01/06 01:55:08;;;;;;;;;;;;;;;;;;5002545;28;19921;-95
2023/01/06 01:57:34;;;;;;;;;;;;;;;;;;5002343;28;19933;-94
2023/01/06 02:00:00;;;;;;;;;;;;;;;;;;5002796;28;19965;-94
2023/01/06 02:02:26;;;;;;;;;;;;;;;;;;5002642;28;19921;-95
2023/01/06 02:04:52;;;;;;;;;;;;;;;;;;5002141;28;19928;-95
2023/01/06 02:07:18;;;;;;;;;;;;;;;;;;5002444;28;19940;-95
2023/01/06 02:09:44;;;;;;;;;;;;;;;;;;5003298;28;19925;-96
2023/01/06 02:12:10;;;;;;;;;;;;;;;;;;5018587;28;20423;-95
2023/01/06 02:14:36;;;;;;;;;;;;;;;;;;5002489;28;19921;-94
2023/01/06 02:17:03;;;;;;;;;;;;;;;;;;5002583;28;20011;-95
2023/01/06 02:19:30;;;;;;;;;;;;;;;;;;5002243;28;19951;-96
2023/01/06 02:21:56;;;;;;;;;;;;;;;;;;5002815;28;20058;-94
2023/01/06 02:24:22;;;;;;;;;;;;;;;;;;5002576;28;20217;-95
2023/01/06 02:26:48;;;;;;;;;;;;;;;;;;5002161;28;19925;-94
2023/01/06 02:29:14;;;;;;;;;;;;;;;;;;5002116;28;19925;-95
2023/01/06 02:31:40;;;;;;;;;;;;;;;;;;5018671;28;19925;-94
2023/01/06 02:34:06;;;;;;;;;;;;;;;;;;5002115;28;19928;-94
2023/01/06 02:36:32;;;;;;;;;;;;;;;;;;5001802;28;19936;-94
2023/01/06 02:38:58;;;;;;;;;;;;;;;;;;5002121;28;19965;-94
2023/01/06 02:41:24;;;;;;;;;;;;;;;;;;5002002;28;19932;-95
2023/01/06 02:43:50;;;;;;;;;;;;;;;;;;5002088;28;20000;-96
2023/01/06 02:46:16;;;;;;;;;;;;;;;;;;5001859;28;20390;-94
2023/01/06 02:48:42;;;;;;;;;;;;;;;;;;5001757;28;19921;-96
2023/01/06 02:51:08;;;;;;;;;;;;;;;;;;5003632;28;20016;-96
2023/01/06 02:53:34;;;;;;;;;;;;;;;;;;5000905;28;19930;-95
2023/01/06 02:56:02;;;;;;;;;;;;;;;;;;5001117;28;19921;-96
2023/01/06 02:58:31;;;;;;;;;;;;;;;;;;5000980;28;20384;-95
2023/01/06 03:01:02;;;;;;;;;;;;;;;;;;5006500;28;19921;-95
2023/01/06 03:03:29;;;;;;;;;;;;;;;;;;5020123;28;19909;-95
2023/01/06 03:05:54;;;;;;;;;;;;;;;;;;5018076;28;19925;-95
2023/01/06 03:08:33;;;;;;;;;;;;;;;;;;;;;
2023/01/06 03:13:51;;;;;;;;;;;;;;;;;;5035767;28;19965;-95
2023/01/06 03:16:19;;;;;;;;;;;;;;;;;;5023862;28;19926;-95
2023/01/06 03:18:55;;;;;;;;;;;;;;;;;;5003553;28;20084;-95
2023/01/06 03:21:43;;;;;;;;;;;;;;;;;;5004290;28;20288;-96
2023/01/06 03:24:50;;;;;;;;;;;;;;;;;;5020274;28;19926;-96
2023/01/06 03:27:12;;;;;;;;;;;;;;;;;;5016649;28;19932;-95
2023/01/06 03:29:38;;;;;;;;;;;;;;;;;;5001954;28;20008;-96
2023/01/06 03:32:07;;;;;;;;;;;;;;;;;;5000509;28;20372;-96
2023/01/06 03:34:43;;;;;;;;;;;;;;;;;;;;;
2023/01/06 03:37:10;;;;;;;;;;;;;;;;;;5015623;28;19926;-96
2023/01/06 03:45:39;;;;;;;;;;;;;;;;;;5015966;28;19933;-96
2023/01/06 03:48:16;;;;;;;;;;;;;;;;;;5001188;28;19925;-96
2023/01/06 03:50:42;;;;;;;;;;;;;;;;;;5001474;28;19921;-96
2023/01/06 03:53:21;;;;;;;;;;;;;;;;;;;;;
2023/01/06 03:55:50;;;;;;;;;;;;;;;;;;5013557;28;19921;-96
2023/01/06 03:58:16;;;;;;;;;;;;;;;;;;4999899;28;19926;-96
2023/01/06 04:00:42;;;;;;;;;;;;;;;;;;5000219;28;20005;-95
2023/01/06 04:03:08;;;;;;;;;;;;;;;;;;4997677;28;19926;-96
2023/01/06 04:05:34;;;;;;;;;;;;;;;;;;4997684;28;19932;-93
2023/01/06 04:08:00;;;;;;;;;;;;;;;;;;4997301;28;19922;-94
2023/01/06 04:10:29;;;;;;;;;;;;;;;;;;4997095;28;19929;-95
2023/01/06 04:13:02;;;;;;;;;;;;;;;;;;5014049;28;19967;-95
2023/01/06 04:15:36;;;;;;;;;;;;;;;;;;4997657;28;19921;-95
2023/01/06 04:18:12;;;;;;;;;;;;;;;;;;4996276;28;20447;-95
2023/01/06 04:20:38;;;;;;;;;;;;;;;;;;4997253;28;19921;-95
2023/01/06 04:23:04;;;;;;;;;;;;;;;;;;4997266;28;19929;-94
2023/01/06 04:25:30;;;;;;;;;;;;;;;;;;4997146;28;20372;-96
2023/01/06 04:27:59;;;;;;;;;;;;;;;;;;4997494;28;19971;-95
2023/01/06 04:30:26;;;;;;;;;;;;;;;;;;4997811;28;19922;-92
2023/01/06 04:32:52;;;;;;;;;;;;;;;;;;4997458;28;19944;-94
2023/01/06 04:35:19;;;;;;;;;;;;;;;;;;4996757;28;19921;-93
2023/01/06 04:38:02;;;;;;;;;;;;;;;;;;5012455;28;19925;-95
2023/01/06 04:40:28;;;;;;;;;;;;;;;;;;4996354;28;20280;-95
2023/01/06 04:43:03;;;;;;;;;;;;;;;;;;4997079;28;19925;-92
2023/01/06 04:45:29;;;;;;;;;;;;;;;;;;4996787;28;19928;-94
2023/01/06 04:47:55;;;;;;;;;;;;;;;;;;4996688;28;19928;-95
2023/01/06 04:50:21;;;;;;;;;;;;;;;;;;4996970;28;20008;-96
2023/01/06 04:52:47;;;;;;;;;;;;;;;;;;4996498;28;20428;-93
2023/01/06 04:55:13;;;;;;;;;;;;;;;;;;4996112;28;19952;-93
2023/01/06 04:57:39;;;;;;;;;;;;;;;;;;4996047;28;20300;-94
2023/01/06 05:03:14;;;;;;;;;;;;;;;;;;;;;
2023/01/06 05:08:52;;;;;;;;;;;;;;;;;;4924159;29;19923;-96
2023/01/06 05:11:44;;;;;;;;;;;;;;;;;;4930240;29;19923;-96
2023/01/06 05:14:28;;;;;;;;;;;;;;;;;;;;;
2023/01/06 05:19:57;;;;;;;;;;;;;;;;;;4908548;29;20055;-96
2023/01/06 05:22:23;;;;;;;;;;;;;;;;;;4905897;29;19962;-94
2023/01/06 05:24:49;;;;;;;;;;;;;;;;;;4951850;28;19921;-95
2023/01/06 05:27:15;;;;;;;;;;;;;;;;;;5003667;28;19921;-96
2023/01/06 05:29:50;;;;;;;;;;;;;;;;;;5007962;28;19977;-96
2023/01/06 05:32:26;;;;;;;;;;;;;;;;;;;;;
2023/01/06 05:34:56;;;;;;;;;;;;;;;;;;4989467;28;19925;-96
2023/01/06 05:37:41;;;;;;;;;;;;;;;;;;5022259;28;19984;-96
2023/01/06 05:40:13;;;;;;;;;;;;;;;;;;5004344;28;20364;-96
2023/01/06 05:42:58;;;;;;;;;;;;;;;;;;;;;
2023/01/06 05:45:37;;;;;;;;;;;;;;;;;;4987942;28;19976;-95
2023/01/06 05:48:05;;;;;;;;;;;;;;;;;;5002342;28;20015;-96
2023/01/06 05:50:31;;;;;;;;;;;;;;;;;;5002779;28;19927;-96
2023/01/06 05:52:57;;;;;;;;;;;;;;;;;;5003182;28;20016;-96
2023/01/06 05:55:23;;;;;;;;;;;;;;;;;;5017284;28;19975;-96
2023/01/06 05:57:49;;;;;;;;;;;;;;;;;;4999337;28;19981;-95
2023/01/06 06:00:15;;;;;;;;;;;;;;;;;;4999277;28;19971;-95
2023/01/06 06:02:41;;;;;;;;;;;;;;;;;;4999352;28;19922;-95
2023/01/06 06:05:07;;;;;;;;;;;;;;;;;;4999547;28;20008;-95
2023/01/06 06:07:33;;;;;;;;;;;;;;;;;;4998958;28;19932;-96
2023/01/06 06:10:02;;;;;;;;;;;;;;;;;;5015896;28;20032;-94
2023/01/06 06:12:28;;;;;;;;;;;;;;;;;;4999153;28;20375;-93
2023/01/06 06:14:54;;;;;;;;;;;;;;;;;;4999381;28;19926;-95
2023/01/06 06:17:20;;;;;;;;;;;;;;;;;;4999043;28;19925;-93
2023/01/06 06:19:49;;;;;;;;;;;;;;;;;;4999520;28;20004;-95
2023/01/06 06:22:21;;;;;;;;;;;;;;;;;;4999591;28;19929;-95
2023/01/06 06:24:47;;;;;;;;;;;;;;;;;;5000773;28;19928;-94
2023/01/06 06:27:16;;;;;;;;;;;;;;;;;;5000968;28;20012;-96
2023/01/06 06:29:42;;;;;;;;;;;;;;;;;;5000412;28;19964;-94
2023/01/06 06:32:11;;;;;;;;;;;;;;;;;;4998973;28;19921;-96
2023/01/06 06:34:43;;;;;;;;;;;;;;;;;;5001101;28;19921;-96
2023/01/06 06:37:12;;;;;;;;;;;;;;;;;;5000035;28;20376;-95
2023/01/06 06:39:40;;;;;;;;;;;;;;;;;;4999250;28;19975;-96
2023/01/06 06:42:09;;;;;;;;;;;;;;;;;;4999670;28;19928;-95
2023/01/06 06:44:43;;;;;;;;;;;;;;;;;;5001227;28;19922;-95
2023/01/06 06:47:17;;;;;;;;;;;;;;;;;;4999319;28;20368;-96
2023/01/06 06:49:43;;;;;;;;;;;;;;;;;;4999036;28;19990;-96
2023/01/06 06:52:09;;;;;;;;;;;;;;;;;;4999160;28;19925;-94
2023/01/06 06:54:35;;;;;;;;;;;;;;;;;;4998904;28;19930;-94
2023/01/06 06:57:07;;;;;;;;;;;;;;;;;;5000370;28;19933;-96
2023/01/06 06:59:33;;;;;;;;;;;;;;;;;;5002018;28;19929;-96
2023/01/06 07:02:08;;;;;;;;;;;;;;;;;;5000453;28;19921;-95
2023/01/06 07:04:49;;;;;;;;;;;;;;;;;;5002895;28;19922;-96
2023/01/06 07:07:33;;;;;;;;;;;;;;;;;;5023240;28;19948;-95
2023/01/06 07:09:59;;;;;;;;;;;;;;;;;;5019983;28;19947;-96
2023/01/06 07:12:37;;;;;;;;;;;;;;;;;;5014061;28;20342;-95
2023/01/06 07:15:03;;;;;;;;;;;;;;;;;;5001642;28;19921;-95
2023/01/06 07:17:30;;;;;;;;;;;;;;;;;;5011849;28;19969;-93
2023/01/06 07:19:59;;;;;;;;;;;;;;;;;;5012764;28;19921;-94
2023/01/06 07:22:25;;;;;;;;;;;;;;;;;;5004268;28;19968;-92
2023/01/06 07:24:51;;;;;;;;;;;;;;;;;;5007504;28;19921;-93
2023/01/06 07:27:20;;;;;;;;;;;;;;;;;;5003237;28;19921;-95
2023/01/06 07:29:52;;;;;;;;;;;;;;;;;;5021935;28;19921;-94
2023/01/06 07:32:36;;;;;;;;;;;;;;;;;;5002495;28;19922;-95
2023/01/06 07:35:05;;;;;;;;;;;;;;;;;;5000141;28;19960;-94
2023/01/06 07:40:30;;;;;;;;;;;;;;;;;;5019560;28;19925;-95
2023/01/06 07:42:58;;;;;;;;;;;;;;;;;;4997969;28;19921;-93
2023/01/06 07:45:27;;;;;;;;;;;;;;;;;;5013852;28;20340;-95
2023/01/06 07:47:53;;;;;;;;;;;;;;;;;;4997204;28;19928;-94
2023/01/06 07:50:19;;;;;;;;;;;;;;;;;;4997790;28;19909;-94
2023/01/06 07:52:45;;;;;;;;;;;;;;;;;;4997045;28;19926;-94
2023/01/06 07:55:20;;;;;;;;;;;;;;;;;;4997359;28;19929;-94
2023/01/06 07:57:47;;;;;;;;;;;;;;;;;;5012407;28;19932;-95
2023/01/06 08:00:13;;;;;;;;;;;;;;;;;;4996797;28;19921;-93
2023/01/06 08:02:39;;;;;;;;;;;;;;;;;;4996851;28;19988;-93
2023/01/06 08:05:05;;;;;;;;;;;;;;;;;;4996276;28;19925;-92
2023/01/06 08:07:31;;;;;;;;;;;;;;;;;;4996130;28;19921;-94
2023/01/06 08:09:57;;;;;;;;;;;;;;;;;;4996827;28;19921;-94
2023/01/06 08:12:22;;;;;;;;;;;;;;;;;;4996271;28;19921;-89
2023/01/06 08:14:48;;;;;;;;;;;;;;;;;;4996307;28;19983;-90
2023/01/06 08:17:14;;;;;;;;;;;;;;;;;;4995684;28;20339;-90
2023/01/06 08:19:40;;;;;;;;;;;;;;;;;;4995902;28;19975;-92
2023/01/06 08:22:08;;;;;;;;;;;;;;;;;;5012588;28;19932;-93
2023/01/06 08:24:37;;;;;;;;;;;;;;;;;;4996952;28;20273;-93
2023/01/06 08:27:04;;;;;;;;;;;;;;;;;;5012538;28;19932;-93
2023/01/06 08:29:30;;;;;;;;;;;;;;;;;;4996302;28;19921;-94
2023/01/06 08:31:56;;;;;;;;;;;;;;;;;;4996085;28;20332;-93
2023/01/06 08:34:22;;;;;;;;;;;;;;;;;;4995974;28;19969;-95
2023/01/06 08:36:49;;;;;;;;;;;;;;;;;;5011696;28;19972;-94
2023/01/06 08:39:18;;;;;;;;;;;;;;;;;;4995960;28;19968;-96
2023/01/06 08:41:46;;;;;;;;;;;;;;;;;;5012416;28;19972;-95
2023/01/06 08:47:19;;;;;;;;;;;;;;;;;;5017037;28;19920;-94
2023/01/06 08:49:45;;;;;;;;;;;;;;;;;;4995169;28;19922;-94
2023/01/06 08:52:11;;;;;;;;;;;;;;;;;;4995427;28;20337;-92
2023/01/06 08:54:37;;;;;;;;;;;;;;;;;;4996151;28;19926;-94
2023/01/06 08:57:03;;;;;;;;;;;;;;;;;;5012366;28;20268;-95
2023/01/06 08:59:29;;;;;;;;;;;;;;;;;;4998331;28;20337;-94
2023/01/06 09:02:03;;;;;;;;;;;;;;;;;;5012450;28;19926;-94
2023/01/06 09:04:31;;;;;;;;;;;;;;;;;;5016335;28;19948;-96
2023/01/06 09:06:58;;;;;;;;;;;;;;;;;;5001212;28;19921;-94
2023/01/06 09:09:24;;;;;;;;;;;;;;;;;;4997164;28;19925;-93
2023/01/06 09:11:50;;;;;;;;;;;;;;;;;;4995816;28;19944;-93
2023/01/06 09:14:20;;;;;;;;;;;;;;;;;;4996251;28;20368;-95
2023/01/06 09:17:02;;;;;;;;;;;;;;;;;;5012681;28;19929;-96
2023/01/06 09:19:31;;;;;;;;;;;;;;;;;;4998442;28;19921;-96
2023/01/06 09:24:44;;;;;;;;;;;;;;;;;;4982206;28;19929;-92
2023/01/06 09:27:10;;;;;;;;;;;;;;;;;;5011379;28;19926;-91
2023/01/06 09:29:36;;;;;;;;;;;;;;;;;;4996898;28;19921;-92
2023/01/06 09:32:05;;;;;;;;;;;;;;;;;;4993724;28;19921;-92
2023/01/06 09:34:31;;;;;;;;;;;;;;;;;;4994405;28;19929;-91
2023/01/06 09:36:57;;;;;;;;;;;;;;;;;;4994610;28;19926;-91
2023/01/06 09:39:23;;;;;;;;;;;;;;;;;;4994995;28;19926;-92
2023/01/06 09:41:49;;;;;;;;;;;;;;;;;;5011173;28;19948;-91
2023/01/06 09:44:15;;;;;;;;;;;;;;;;;;4994779;28;19929;-92
2023/01/06 09:46:41;;;;;;;;;;;;;;;;;;5011186;28;20017;-91
2023/01/06 09:49:07;;;;;;;;;;;;;;;;;;4995167;28;19964;-93
2023/01/06 09:51:33;;;;;;;;;;;;;;;;;;4995518;28;19922;-88
2023/01/06 09:53:59;;;;;;;;;;;;;;;;;;4997809;28;19928;-93
2023/01/06 09:56:29;;;;;;;;;;;;;;;;;;4999837;28;19921;-94
2023/01/06 09:58:55;;;;;;;;;;;;;;;;;;5002561;28;20123;-93
2023/01/06 10:01:25;;;;;;;;;;;;;;;;;;5018829;28;19925;-93
2023/01/06 10:21:05;;;;;;;;;;;;;;;;;;5168133;22;20008;-95
2023/01/06 10:23:18;;;;;;;;;;;;;;;;;;5038263;28;19976;-96
2023/01/06 10:29:02;;;;;;;;;;;;;;;;;;;;;
2023/01/06 10:38:16;;;;;;;;;;;;;;;;;;4945178;29;19926;-96
2023/01/06 10:40:51;;;;;;;;;;;;;;;;;;4928698;29;19929;-96
2023/01/06 10:43:21;;;;;;;;;;;;;;;;;;4944151;28;19922;-95
2023/01/06 10:45:57;;;;;;;;;;;;;;;;;;4947077;28;19922;-96
2023/01/06 10:48:31;;;;;;;;;;;;;;;;;;4946501;28;19961;-96
2023/01/06 10:57:44;;;;;;;;;;;;;;;;;;;;;
2023/01/06 16:18:12;;;;;;;;;;;;;;;;;;4995047;28;20317;-92
2023/01/06 16:20:38;;;;;;;;;;;;;;;;;;4962018;28;19922;-93
2023/01/06 16:23:04;;;;;;;;;;;;;;;;;;4962223;28;19922;-94
2023/01/06 16:25:30;;;;;;;;;;;;;;;;;;4962514;28;19921;-93
2023/01/06 16:28:02;;;;;;;;;;;;;;;;;;4979065;28;20008;-93
2023/01/06 16:30:27;;;;;;;;;;;;;;;;;;4967051;28;19930;-93
2023/01/06 16:32:53;;;;;;;;;;;;;;;;;;4988681;28;19950;-95
2023/01/06 16:43:32;;;;;;;;;;;;;;;;;;5245334;22;19917;-92
2023/01/06 16:48:31;;;;;;;;;;;;;;;;;;5922671;22;19933;-95
2023/01/06 16:58:44;;;;;;;;;;;;;;;;;;5156470;22;19947;-95
2023/01/06 17:01:16;;;;;;;;;;;;;;;;;;5013848;28;20288;-96
2023/01/06 17:03:42;;;;;;;;;;;;;;;;;;4995481;28;20438;-95
2023/01/06 17:06:11;;;;;;;;;;;;;;;;;;4996566;28;19995;-93
2023/01/06 17:08:37;;;;;;;;;;;;;;;;;;4995632;28;20280;-96
2023/01/06 17:11:03;;;;;;;;;;;;;;;;;;4996759;28;20012;-93
2023/01/06 17:16:25;;;;;;;;;;;;;;;;;;4974321;28;19933;-93
2023/01/06 17:27:47;;;;;;;;;;;;;;;;;;;;;
2023/01/06 17:30:46;;;;;;;;;;;;;;;;;;5015863;28;20021;-93
2023/01/06 17:35:50;;;;;;;;;;;;;;;;;;6002746;22;19911;-96
2023/01/06 17:38:27;;;;;;;;;;;;;;;;;;5023118;28;19913;-93
2023/01/06 17:40:56;;;;;;;;;;;;;;;;;;5027239;28;19921;-93
2023/01/06 17:43:22;;;;;;;;;;;;;;;;;;5011875;28;19922;-93
2023/01/06 17:45:50;;;;;;;;;;;;;;;;;;5016054;28;19925;-96
2023/01/06 17:48:15;;;;;;;;;;;;;;;;;;5011808;28;19921;-95
2023/01/06 17:50:44;;;;;;;;;;;;;;;;;;5012646;28;19927;-96
2023/01/06 17:56:00;;;;;;;;;;;;;;;;;;5012395;28;20266;-94
2023/01/06 17:58:28;;;;;;;;;;;;;;;;;;5011790;28;19933;-93
2023/01/06 18:00:54;;;;;;;;;;;;;;;;;;5011788;28;19921;-95
2023/01/06 18:03:19;;;;;;;;;;;;;;;;;;5011091;28;19927;-92
2023/01/06 18:05:47;;;;;;;;;;;;;;;;;;5011164;28;20385;-93
2023/01/06 18:08:13;;;;;;;;;;;;;;;;;;5011155;28;20016;-93
2023/01/06 18:10:39;;;;;;;;;;;;;;;;;;5011587;28;20043;-93
2023/01/06 18:13:11;;;;;;;;;;;;;;;;;;5017693;28;19929;-96
2023/01/06 18:15:47;;;;;;;;;;;;;;;;;;5037496;28;19977;-96
2023/01/06 18:18:16;;;;;;;;;;;;;;;;;;5009007;28;19978;-95
2023/01/06 18:28:40;;;;;;;;;;;;;;;;;;;;;
2023/01/06 18:31:10;;;;;;;;;;;;;;;;;;5006354;28;20004;-92
2023/01/06 18:33:36;;;;;;;;;;;;;;;;;;4978673;28;20372;-94
2023/01/06 18:36:02;;;;;;;;;;;;;;;;;;4978943;28;19929;-90
2023/01/06 18:38:28;;;;;;;;;;;;;;;;;;4978271;28;20257;-90
2023/01/06 18:40:54;;;;;;;;;;;;;;;;;;4977995;28;20085;-91
2023/01/06 18:43:20;;;;;;;;;;;;;;;;;;4994117;28;19984;-90
2023/01/06 18:45:45;;;;;;;;;;;;;;;;;;4994615;28;19926;-92
2023/01/06 18:48:11;;;;;;;;;;;;;;;;;;4994855;28;19929;-90
2023/01/06 18:50:40;;;;;;;;;;;;;;;;;;4978060;28;20009;-91
2023/01/06 18:53:18;;;;;;;;;;;;;;;;;;4979549;28;19944;-93
2023/01/06 18:55:49;;;;;;;;;;;;;;;;;;4978073;28;19922;-90
2023/01/06 18:58:15;;;;;;;;;;;;;;;;;;4977674;28;19930;-91
2023/01/06 19:00:41;;;;;;;;;;;;;;;;;;4994453;28;19929;-91
2023/01/06 19:03:07;;;;;;;;;;;;;;;;;;4977753;28;19944;-92
2023/01/06 19:05:33;;;;;;;;;;;;;;;;;;4994327;28;19926;-91
2023/01/06 19:07:59;;;;;;;;;;;;;;;;;;4977723;28;19921;-91
2023/01/06 19:10:26;;;;;;;;;;;;;;;;;;4977339;28;19933;-91
2023/01/06 19:12:52;;;;;;;;;;;;;;;;;;4977430;28;20373;-90
2023/01/06 19:15:18;;;;;;;;;;;;;;;;;;4977243;28;19922;-91
2023/01/06 19:17:44;;;;;;;;;;;;;;;;;;4977115;28;20013;-91
2023/01/06 19:20:11;;;;;;;;;;;;;;;;;;4977828;28;19961;-92
2023/01/06 19:22:37;;;;;;;;;;;;;;;;;;4977411;28;19921;-92
2023/01/06 19:25:03;;;;;;;;;;;;;;;;;;4977962;28;19922;-93
2023/01/06 19:27:29;;;;;;;;;;;;;;;;;;4977330;28;20080;-91
2023/01/06 19:29:55;;;;;;;;;;;;;;;;;;4993836;28;20424;-91
2023/01/06 19:32:21;;;;;;;;;;;;;;;;;;4977721;28;19921;-92
2023/01/06 19:34:46;;;;;;;;;;;;;;;;;;4978722;28;20375;-92
2023/01/06 19:37:12;;;;;;;;;;;;;;;;;;4978028;28;19926;-91
2023/01/06 19:39:38;;;;;;;;;;;;;;;;;;4977107;28;19922;-90
2023/01/06 19:42:04;;;;;;;;;;;;;;;;;;4976814;28;19928;-89
2023/01/06 19:44:32;;;;;;;;;;;;;;;;;;4976766;28;19922;-90
2023/01/06 19:46:57;;;;;;;;;;;;;;;;;;4993858;28;20332;-92
2023/01/06 19:49:23;;;;;;;;;;;;;;;;;;4977335;28;19922;-91
2023/01/06 19:51:49;;;;;;;;;;;;;;;;;;4976973;28;20020;-92
2023/01/06 19:54:15;;;;;;;;;;;;;;;;;;4977139;28;19933;-90
2023/01/06 19:56:41;;;;;;;;;;;;;;;;;;4976789;28;20451;-91
2023/01/06 19:59:07;;;;;;;;;;;;;;;;;;4977496;28;19928;-91
2023/01/06 20:01:33;;;;;;;;;;;;;;;;;;4977285;28;19922;-91
2023/01/06 20:03:59;;;;;;;;;;;;;;;;;;4976954;28;20393;-90
2023/01/06 20:06:25;;;;;;;;;;;;;;;;;;4990849;28;19933;-93
2023/01/06 20:08:52;;;;;;;;;;;;;;;;;;5011437;28;20324;-92
2023/01/06 20:11:18;;;;;;;;;;;;;;;;;;4993422;28;19944;-93
2023/01/06 20:13:44;;;;;;;;;;;;;;;;;;4977575;28;20005;-92
2023/01/06 20:27:01;;;;;;;;;;;;;;;;;;5086024;23;19971;-94
2023/01/06 20:29:28;;;;;;;;;;;;;;;;;;5015899;28;20254;-93
2023/01/06 20:31:55;;;;;;;;;;;;;;;;;;5017113;28;20004;-94
2023/01/06 20:34:24;;;;;;;;;;;;;;;;;;5015365;28;20447;-93
2023/01/06 20:36:50;;;;;;;;;;;;;;;;;;5016334;28;20326;-91
2023/01/06 20:39:16;;;;;;;;;;;;;;;;;;5015898;28;19921;-93
2023/01/06 20:41:42;;;;;;;;;;;;;;;;;;5014910;28;20371;-94
2023/01/06 20:44:08;;;;;;;;;;;;;;;;;;5016947;28;19925;-95
2023/01/06 20:46:40;;;;;;;;;;;;;;;;;;5016023;28;19922;-95
2023/01/06 20:49:28;;;;;;;;;;;;;;;;;;5165652;23;20004;-93
2023/01/06 20:51:57;;;;;;;;;;;;;;;;;;4992516;28;19964;-94
2023/01/06 20:54:23;;;;;;;;;;;;;;;;;;5012701;28;19929;-94
2023/01/06 21:02:06;;;;;;;;;;;;;;;;;;5113328;23;19925;-96
2023/01/06 21:04:35;;;;;;;;;;;;;;;;;;5048438;28;19974;-95
2023/01/06 21:07:20;;;;;;;;;;;;;;;;;;5024531;28;19927;-92
2023/01/06 21:09:46;;;;;;;;;;;;;;;;;;5011889;28;20362;-90
2023/01/06 21:12:15;;;;;;;;;;;;;;;;;;4996204;28;19979;-93
2023/01/06 21:14:44;;;;;;;;;;;;;;;;;;4995302;28;19965;-93
2023/01/06 21:17:10;;;;;;;;;;;;;;;;;;4995433;28;19951;-94
2023/01/06 21:19:36;;;;;;;;;;;;;;;;;;4995750;28;20288;-93
2023/01/06 21:22:02;;;;;;;;;;;;;;;;;;4996029;28;19922;-93
2023/01/06 21:24:31;;;;;;;;;;;;;;;;;;4995792;28;19922;-93
2023/01/06 21:26:57;;;;;;;;;;;;;;;;;;4995558;28;19984;-94
2023/01/06 21:29:23;;;;;;;;;;;;;;;;;;4995352;28;20365;-94
2023/01/06 21:31:52;;;;;;;;;;;;;;;;;;5011728;28;19921;-93
2023/01/06 21:34:18;;;;;;;;;;;;;;;;;;5010943;28;20012;-93
2023/01/06 21:36:44;;;;;;;;;;;;;;;;;;4995047;28;20019;-93
2023/01/06 21:39:14;;;;;;;;;;;;;;;;;;5011711;28;19921;-93
2023/01/06 21:44:27;;;;;;;;;;;;;;;;;;5011976;28;19921;-96
2023/01/06 21:46:58;;;;;;;;;;;;;;;;;;5012401;28;19972;-95
2023/01/06 21:49:28;;;;;;;;;;;;;;;;;;5014159;28;20404;-95
2023/01/06 21:51:54;;;;;;;;;;;;;;;;;;5015132;28;19952;-96
2023/01/06 21:54:21;;;;;;;;;;;;;;;;;;5018032;28;19929;-95
2023/01/06 21:56:57;;;;;;;;;;;;;;;;;;5000799;28;19930;-95
2023/01/06 21:59:26;;;;;;;;;;;;;;;;;;5015461;28;19921;-94
2023/01/06 22:04:51;;;;;;;;;;;;;;;;;;5024091;28;19930;-95
2023/01/06 22:07:17;;;;;;;;;;;;;;;;;;4998307;28;19926;-92
2023/01/06 22:09:44;;;;;;;;;;;;;;;;;;4999414;28;19924;-94
2023/01/06 22:12:13;;;;;;;;;;;;;;;;;;4999224;28;19922;-94
2023/01/06 22:14:39;;;;;;;;;;;;;;;;;;4998932;28;20287;-94
2023/01/06 22:17:05;;;;;;;;;;;;;;;;;;4998638;28;19922;-93
2023/01/06 22:19:31;;;;;;;;;;;;;;;;;;4998304;28;19932;-93
2023/01/06 22:21:57;;;;;;;;;;;;;;;;;;4998456;28;19925;-93
2023/01/06 22:24:22;;;;;;;;;;;;;;;;;;4998571;28;19922;-92
2023/01/06 22:26:48;;;;;;;;;;;;;;;;;;4998565;28;19922;-93
2023/01/06 22:29:14;;;;;;;;;;;;;;;;;;4997966;28;19928;-94
2023/01/06 22:31:40;;;;;;;;;;;;;;;;;;4998420;28;19969;-93
2023/01/06 22:34:06;;;;;;;;;;;;;;;;;;4997910;28;19921;-93
2023/01/06 22:36:32;;;;;;;;;;;;;;;;;;4998035;28;19925;-93
2023/01/06 22:38:58;;;;;;;;;;;;;;;;;;5014148;28;19926;-93
2023/01/06 22:41:24;;;;;;;;;;;;;;;;;;4998358;28;19980;-93
2023/01/06 22:43:51;;;;;;;;;;;;;;;;;;4998089;28;19925;-94
2023/01/06 22:46:17;;;;;;;;;;;;;;;;;;4998606;28;19928;-94
2023/01/06 22:48:43;;;;;;;;;;;;;;;;;;5014372;28;19922;-94
2023/01/06 22:51:09;;;;;;;;;;;;;;;;;;4998351;28;19929;-93
2023/01/06 22:53:35;;;;;;;;;;;;;;;;;;4998374;28;19951;-93
2023/01/06 22:56:01;;;;;;;;;;;;;;;;;;4997888;28;19921;-93
2023/01/06 22:58:27;;;;;;;;;;;;;;;;;;4997526;28;19921;-93
2023/01/06 23:00:53;;;;;;;;;;;;;;;;;;4997755;28;20288;-93
2023/01/06 23:03:19;;;;;;;;;;;;;;;;;;4997341;28;19921;-92
2023/01/06 23:05:44;;;;;;;;;;;;;;;;;;5014168;28;19925;-93
2023/01/06 23:08:10;;;;;;;;;;;;;;;;;;4997508;28;19925;-92
2023/01/06 23:10:36;;;;;;;;;;;;;;;;;;5013700;28;19969;-92
2023/01/06 23:13:02;;;;;;;;;;;;;;;;;;4997401;28;19967;-92
2023/01/06 23:15:28;;;;;;;;;;;;;;;;;;4997469;28;19922;-93
2023/01/06 23:17:54;;;;;;;;;;;;;;;;;;4997084;28;20284;-93
2023/01/06 23:20:23;;;;;;;;;;;;;;;;;;4997274;28;19930;-93
2023/01/06 23:22:48;;;;;;;;;;;;;;;;;;4997434;28;19921;-93
2023/01/06 23:25:14;;;;;;;;;;;;;;;;;;4997277;28;20359;-93
2023/01/06 23:27:40;;;;;;;;;;;;;;;;;;4996951;28;19926;-93
2023/01/06 23:30:06;;;;;;;;;;;;;;;;;;4996910;28;20048;-93
2023/01/06 23:32:32;;;;;;;;;;;;;;;;;;4997244;28;19922;-95
2023/01/06 23:34:58;;;;;;;;;;;;;;;;;;4997478;28;19921;-94
2023/01/06 23:37:24;;;;;;;;;;;;;;;;;;5013994;28;19928;-94
2023/01/06 23:39:52;;;;;;;;;;;;;;;;;;4997257;28;19930;-94
2023/01/06 23:42:18;;;;;;;;;;;;;;;;;;4997677;28;19945;-94
2023/01/06 23:44:43;;;;;;;;;;;;;;;;;;4997788;28;19921;-95
2023/01/06 23:47:09;;;;;;;;;;;;;;;;;;4996991;28;19921;-94
2023/01/06 23:49:35;;;;;;;;;;;;;;;;;;4997317;28;20012;-94
2023/01/06 23:52:03;;;;;;;;;;;;;;;;;;4997144;28;20364;-94
2023/01/06 23:54:30;;;;;;;;;;;;;;;;;;4997281;28;19944;-94
2023/01/06 23:56:56;;;;;;;;;;;;;;;;;;4997210;28;20288;-94
2023/01/06 23:59:22;;;;;;;;;;;;;;;;;;4996709;28;19926;-94
